Terminal Aerodrome Forecast
Issued by NWS

Home | Current Version | Previous Version | Text Only | Print | Product List | Glossary On
Versions: 1 2 3 4 5 6 7 8 9 10 11 12 13 14 15 16 17 18 19 20
000
FTUS44 KLZK 272323
TAFLIT
TAF
KLIT 272323Z 2800/2824 14008KT P6SM SCT120
     FM280600 14006KT P6SM SCT015 WS020/18036KT
     FM281200 17005KT P6SM BKN015 OVC040 WS020/20043KT
     FM282000 17008G15KT P6SM VCSH BKN010 OVC035=

USA.gov is the U.S. government's official web portal to all federal, state and local government web resources and services.